createdAt,value
2017-12-23T00:00:03.444Z,1026.89
2017-12-23T00:01:03.848Z,1026.86
2017-12-23T00:02:04.269Z,1026.91
2017-12-23T00:03:04.693Z,1026.91
2017-12-23T00:04:05.126Z,1026.88
2017-12-23T00:05:05.540Z,1026.89
2017-12-23T00:06:05.957Z,1026.87
2017-12-23T00:07:06.383Z,1026.82
2017-12-23T00:08:06.806Z,1026.80
2017-12-23T00:09:07.225Z,1026.79
2017-12-23T00:10:07.646Z,1026.72
2017-12-23T00:11:08.072Z,1026.70
2017-12-23T00:12:08.494Z,1026.64
2017-12-23T00:13:08.917Z,1026.63
2017-12-23T00:14:09.332Z,1026.65
2017-12-23T00:15:09.760Z,1026.61
2017-12-23T00:16:10.179Z,1026.62
2017-12-23T00:17:10.577Z,1026.62
2017-12-23T00:18:11.005Z,1026.65
2017-12-23T00:19:11.423Z,1026.62
2017-12-23T00:20:11.856Z,1026.61
2017-12-23T00:21:12.269Z,1026.57
2017-12-23T00:22:12.692Z,1026.52
2017-12-23T00:23:13.117Z,1026.51
2017-12-23T00:24:13.537Z,1026.56
2017-12-23T00:25:13.957Z,1026.52
2017-12-23T00:26:14.378Z,1026.46
2017-12-23T00:27:14.807Z,1026.45
2017-12-23T00:28:15.226Z,1026.43
2017-12-23T00:29:15.651Z,1026.49
2017-12-23T00:30:16.100Z,1026.35
2017-12-23T00:31:16.493Z,1026.30
2017-12-23T00:32:16.943Z,1026.25
2017-12-23T00:33:17.349Z,1026.17
2017-12-23T00:34:17.760Z,1026.18
2017-12-23T00:35:18.183Z,1026.24
2017-12-23T00:36:18.621Z,1026.22
2017-12-23T00:37:19.022Z,1026.26
2017-12-23T00:38:19.454Z,1026.23
2017-12-23T00:39:19.891Z,1026.17
2017-12-23T00:40:20.301Z,1026.22
2017-12-23T00:41:20.718Z,1026.25
2017-12-23T00:42:21.142Z,1026.25
2017-12-23T00:43:21.589Z,1026.20
2017-12-23T00:44:21.984Z,1026.19
2017-12-23T00:45:22.418Z,1026.18
2017-12-23T00:46:22.836Z,1026.20
2017-12-23T00:47:23.255Z,1026.21
2017-12-23T00:48:23.691Z,1026.17
2017-12-23T00:49:24.096Z,1026.24
2017-12-23T00:50:24.516Z,1026.23
2017-12-23T00:51:24.946Z,1026.27
2017-12-23T00:52:25.367Z,1026.34
2017-12-23T00:53:25.791Z,1026.37
2017-12-23T00:54:26.213Z,1026.36
2017-12-23T00:55:26.633Z,1026.28
2017-12-23T00:56:27.055Z,1026.27
2017-12-23T00:57:27.482Z,1026.20
2017-12-23T00:58:27.912Z,1026.10
2017-12-23T00:59:28.320Z,1026.07
2017-12-23T01:00:28.748Z,1026.02
2017-12-23T01:01:29.165Z,1025.97
2017-12-23T01:02:29.590Z,1025.89
2017-12-23T01:03:30.013Z,1025.90
2017-12-23T01:04:30.437Z,1025.84
2017-12-23T01:05:30.867Z,1025.83
2017-12-23T01:06:31.281Z,1025.77
2017-12-23T01:07:31.703Z,1025.76
2017-12-23T01:08:32.130Z,1025.76
2017-12-23T01:09:32.548Z,1025.70
2017-12-23T01:10:33.009Z,1025.73
2017-12-23T01:11:33.392Z,1025.74
2017-12-23T01:12:33.821Z,1025.80
2017-12-23T01:13:34.246Z,1025.80
2017-12-23T01:14:34.676Z,1025.82
2017-12-23T01:15:35.083Z,1025.82
2017-12-23T01:16:35.517Z,1025.83
2017-12-23T01:17:35.925Z,1025.82
2017-12-23T01:18:36.346Z,1025.73
2017-12-23T01:19:36.776Z,1025.78
2017-12-23T01:20:37.197Z,1025.77
2017-12-23T01:21:37.617Z,1025.83
2017-12-23T01:22:38.041Z,1025.75
2017-12-23T01:23:38.467Z,1025.77
2017-12-23T01:24:38.903Z,1025.75
2017-12-23T01:25:39.306Z,1025.75
2017-12-23T01:26:39.728Z,1025.74
2017-12-23T01:27:40.156Z,1025.65
2017-12-23T01:28:40.573Z,1025.71
2017-12-23T01:29:40.997Z,1025.64
2017-12-23T01:30:41.418Z,1025.63
2017-12-23T01:31:41.848Z,1025.54
2017-12-23T01:32:42.272Z,1025.59
2017-12-23T01:33:42.690Z,1025.59
2017-12-23T01:34:43.110Z,1025.57
2017-12-23T01:35:43.531Z,1025.50
2017-12-23T01:36:43.957Z,1025.48
2017-12-23T01:37:44.375Z,1025.49
2017-12-23T01:38:44.799Z,1025.41
2017-12-23T01:39:45.227Z,1025.47
2017-12-23T01:40:45.645Z,1025.41
2017-12-23T01:41:46.066Z,1025.40
2017-12-23T01:42:46.490Z,1025.47
2017-12-23T01:43:46.909Z,1025.42
2017-12-23T01:44:47.339Z,1025.43
2017-12-23T01:45:47.756Z,1025.51
2017-12-23T01:46:48.177Z,1025.46
2017-12-23T01:47:48.674Z,1025.50
2017-12-23T01:48:49.021Z,1025.48
2017-12-23T01:49:49.440Z,1025.52
2017-12-23T01:50:49.868Z,1025.49
2017-12-23T01:51:50.290Z,1025.54
2017-12-23T01:52:50.712Z,1025.51
2017-12-23T01:53:51.131Z,1025.47
2017-12-23T01:54:51.557Z,1025.49
2017-12-23T01:55:51.973Z,1025.46
2017-12-23T01:56:52.398Z,1025.52
2017-12-23T01:57:52.824Z,1025.35
2017-12-23T01:58:53.245Z,1025.45
2017-12-23T01:59:53.663Z,1025.41
2017-12-23T02:00:54.092Z,1025.42
2017-12-23T02:01:54.508Z,1025.39
2017-12-23T02:02:54.929Z,1025.33
2017-12-23T02:03:55.432Z,1025.31
2017-12-23T02:04:55.815Z,1025.33
2017-12-23T02:05:56.195Z,1025.24
2017-12-23T02:06:56.618Z,1025.20
2017-12-23T02:07:57.044Z,1025.18
2017-12-23T02:08:57.474Z,1025.20
2017-12-23T02:09:57.888Z,1025.19
2017-12-23T02:10:58.314Z,1025.21
2017-12-23T02:11:58.729Z,1025.25
2017-12-23T02:12:59.151Z,1025.30
2017-12-23T02:13:59.572Z,1025.31
2017-12-23T02:14:59.992Z,1025.21
2017-12-23T02:16:00.422Z,1025.25
2017-12-23T02:17:00.838Z,1025.27
2017-12-23T02:18:01.269Z,1025.23
2017-12-23T02:19:01.688Z,1025.10
2017-12-23T02:20:02.103Z,1025.03
2017-12-23T02:21:02.528Z,1025.08
2017-12-23T02:22:02.947Z,1025.09
2017-12-23T02:23:03.366Z,1025.13
2017-12-23T02:24:03.795Z,1025.22
2017-12-23T02:25:04.216Z,1025.15
2017-12-23T02:26:04.644Z,1025.14
2017-12-23T02:27:05.058Z,1025.03
2017-12-23T02:28:05.478Z,1025.00
2017-12-23T02:29:05.901Z,1025.04
2017-12-23T02:30:06.326Z,1024.98
2017-12-23T02:31:06.742Z,1024.98
2017-12-23T02:32:07.166Z,1024.95
2017-12-23T02:33:07.591Z,1024.92
2017-12-23T02:34:08.028Z,1024.95
2017-12-23T02:35:08.437Z,1024.91
2017-12-23T02:36:08.855Z,1024.89
2017-12-23T02:37:09.276Z,1024.94
2017-12-23T02:38:09.700Z,1024.96
2017-12-23T02:39:10.125Z,1024.88
2017-12-23T02:40:10.565Z,1024.87
2017-12-23T02:41:10.966Z,1024.88
2017-12-23T02:42:11.388Z,1024.92
2017-12-23T02:43:11.854Z,1024.90
2017-12-23T02:44:12.242Z,1024.86
2017-12-23T02:45:12.659Z,1024.73
2017-12-23T02:46:13.149Z,1024.71
2017-12-23T02:47:13.503Z,1024.72
2017-12-23T02:48:13.919Z,1024.69
2017-12-23T02:49:14.340Z,1024.74
2017-12-23T02:50:14.765Z,1024.72
2017-12-23T02:51:15.182Z,1024.77
2017-12-23T02:52:15.611Z,1024.73
2017-12-23T02:53:16.028Z,1024.83
2017-12-23T02:54:16.447Z,1024.83
2017-12-23T02:55:16.871Z,1024.82
2017-12-23T02:56:17.292Z,1024.82
2017-12-23T02:57:17.722Z,1024.83
2017-12-23T02:58:18.138Z,1024.82
2017-12-23T02:59:18.558Z,1024.82
2017-12-23T03:00:18.981Z,1024.77
2017-12-23T03:01:19.411Z,1024.79
2017-12-23T03:02:19.828Z,1024.85
2017-12-23T03:03:20.246Z,1024.88
2017-12-23T03:04:20.671Z,1024.84
2017-12-23T03:05:21.093Z,1024.75
2017-12-23T03:06:21.516Z,1024.73
2017-12-23T03:07:21.933Z,1024.72
2017-12-23T03:08:22.355Z,1024.71
2017-12-23T03:09:22.784Z,1024.72
2017-12-23T03:10:23.201Z,1024.79
2017-12-23T03:11:23.625Z,1024.72
2017-12-23T03:12:24.055Z,1024.76
2017-12-23T03:13:24.469Z,1024.80
2017-12-23T03:14:24.889Z,1024.77
2017-12-23T03:15:25.326Z,1024.70
2017-12-23T03:16:25.730Z,1024.65
2017-12-23T03:17:26.156Z,1024.67
2017-12-23T03:18:26.574Z,1024.68
2017-12-23T03:19:26.996Z,1024.66
2017-12-23T03:20:27.418Z,1024.77
2017-12-23T03:21:27.837Z,1024.81
2017-12-23T03:22:28.264Z,1024.72
2017-12-23T03:23:28.685Z,1024.67
2017-12-23T03:24:29.113Z,1024.76
2017-12-23T03:25:29.532Z,1024.71
2017-12-23T03:26:29.950Z,1024.81
2017-12-23T03:27:30.372Z,1024.75
2017-12-23T03:28:30.793Z,1024.76
2017-12-23T03:29:31.214Z,1024.67
2017-12-23T03:30:31.640Z,1024.65
2017-12-23T03:31:32.062Z,1024.66
2017-12-23T03:32:32.480Z,1024.67
2017-12-23T03:33:32.935Z,1024.54
2017-12-23T03:34:33.325Z,1024.56
2017-12-23T03:35:33.743Z,1024.56
2017-12-23T03:36:34.169Z,1024.53
2017-12-23T03:37:34.608Z,1024.45
2017-12-23T03:38:35.008Z,1024.46
2017-12-23T03:39:35.429Z,1024.40
2017-12-23T03:40:35.861Z,1024.38
2017-12-23T03:41:36.273Z,1024.32
2017-12-23T03:42:36.697Z,1024.36
2017-12-23T03:43:37.115Z,1024.23
2017-12-23T03:44:37.542Z,1024.23
2017-12-23T03:45:37.958Z,1024.17
2017-12-23T03:46:38.377Z,1024.04
2017-12-23T03:47:38.809Z,1024.07
2017-12-23T03:48:39.223Z,1024.02
2017-12-23T03:49:39.645Z,1024.00
2017-12-23T03:50:40.062Z,1024.00
2017-12-23T03:51:40.518Z,1023.98
2017-12-23T03:52:40.915Z,1024.00
2017-12-23T03:53:41.328Z,1024.02
2017-12-23T03:54:41.747Z,1024.05
2017-12-23T03:55:42.172Z,1024.00
2017-12-23T03:56:42.594Z,1024.01
2017-12-23T03:57:43.011Z,1024.02
2017-12-23T03:58:43.434Z,1024.01
2017-12-23T03:59:43.858Z,1024.11
2017-12-23T04:00:44.278Z,1024.05
2017-12-23T04:01:44.698Z,1024.01
2017-12-23T04:02:45.123Z,1023.97
2017-12-23T04:03:45.547Z,1023.87
2017-12-23T04:04:45.970Z,1023.94
2017-12-23T04:05:46.382Z,1023.94
2017-12-23T04:06:46.806Z,1024.00
2017-12-23T04:07:47.227Z,1023.95
2017-12-23T04:08:47.649Z,1024.00
2017-12-23T04:09:48.069Z,1024.00
2017-12-23T04:10:48.492Z,1023.98
2017-12-23T04:11:48.910Z,1023.95
2017-12-23T04:12:49.354Z,1023.98
2017-12-23T04:13:49.751Z,1023.95
2017-12-23T04:14:50.177Z,1023.96
2017-12-23T04:15:50.604Z,1023.92
2017-12-23T04:16:51.020Z,1023.82
2017-12-23T04:17:51.451Z,1023.87
2017-12-23T04:18:51.912Z,1023.81
2017-12-23T04:19:52.285Z,1023.79
2017-12-23T04:20:52.704Z,1023.81
2017-12-23T04:21:53.126Z,1023.79
2017-12-23T04:22:53.543Z,1023.76
2017-12-23T04:23:53.973Z,1023.84
2017-12-23T04:24:54.389Z,1023.81
2017-12-23T04:25:54.812Z,1023.82
2017-12-23T04:26:55.227Z,1023.81
2017-12-23T04:27:55.653Z,1023.78
2017-12-23T04:28:56.072Z,1023.74
2017-12-23T04:29:56.494Z,1023.77
2017-12-23T04:30:56.915Z,1023.78
2017-12-23T04:31:57.341Z,1023.76
2017-12-23T04:32:57.762Z,1023.82
2017-12-23T04:33:58.187Z,1023.74
2017-12-23T04:34:58.604Z,1023.79
2017-12-23T04:35:59.031Z,1023.69
2017-12-23T04:36:59.445Z,1023.74
2017-12-23T04:37:59.867Z,1023.78
2017-12-23T04:39:00.290Z,1023.71
2017-12-23T04:40:00.713Z,1023.73
2017-12-23T04:41:01.136Z,1023.79
2017-12-23T04:42:01.555Z,1023.74
2017-12-23T04:43:01.976Z,1023.67
2017-12-23T04:44:02.397Z,1023.61
2017-12-23T04:45:02.818Z,1023.61
2017-12-23T04:46:03.245Z,1023.68
2017-12-23T04:47:03.656Z,1023.56
2017-12-23T04:48:04.080Z,1023.51
2017-12-23T04:49:04.509Z,1023.46
2017-12-23T04:50:04.921Z,1023.46
2017-12-23T04:51:05.349Z,1023.40
2017-12-23T04:52:05.761Z,1023.42
2017-12-23T04:53:06.185Z,1023.39
2017-12-23T04:54:06.603Z,1023.39
2017-12-23T04:55:07.024Z,1023.34
2017-12-23T04:56:07.455Z,1023.31
2017-12-23T04:57:07.869Z,1023.32
2017-12-23T04:58:08.300Z,1023.22
2017-12-23T04:59:08.717Z,1023.22
2017-12-23T05:00:09.169Z,1023.21
2017-12-23T05:01:09.554Z,1023.15
2017-12-23T05:02:09.979Z,1023.10
2017-12-23T05:03:10.400Z,1023.12
2017-12-23T05:04:10.835Z,1023.06
2017-12-23T05:05:11.247Z,1023.09
2017-12-23T05:06:11.664Z,1023.15
2017-12-23T05:07:12.079Z,1023.09
2017-12-23T05:08:12.512Z,1023.07
2017-12-23T05:09:12.927Z,1023.12
2017-12-23T05:10:13.352Z,1023.08
2017-12-23T05:11:13.856Z,1023.03
2017-12-23T05:12:14.185Z,1023.00
2017-12-23T05:13:14.607Z,1023.03
2017-12-23T05:14:15.033Z,1023.03
2017-12-23T05:15:15.451Z,1023.11
2017-12-23T05:16:15.873Z,1023.11
2017-12-23T05:17:16.309Z,1023.01
2017-12-23T05:18:16.723Z,1023.00
2017-12-23T05:19:17.141Z,1022.99
2017-12-23T05:20:17.561Z,1023.00
2017-12-23T05:21:17.980Z,1023.01
2017-12-23T05:22:18.403Z,1023.03
2017-12-23T05:23:18.820Z,1023.01
2017-12-23T05:24:19.243Z,1023.09
2017-12-23T05:25:19.669Z,1022.95
2017-12-23T05:26:20.085Z,1022.92
2017-12-23T05:27:20.507Z,1023.07
2017-12-23T05:28:20.926Z,1023.05
2017-12-23T05:29:21.345Z,1023.13
2017-12-23T05:30:21.768Z,1023.06
2017-12-23T05:31:22.201Z,1023.19
2017-12-23T05:32:22.612Z,1023.18
2017-12-23T05:33:23.034Z,1023.09
2017-12-23T05:34:23.451Z,1023.17
2017-12-23T05:35:23.872Z,1023.21
2017-12-23T05:36:24.296Z,1023.18
2017-12-23T05:37:24.714Z,1023.18
2017-12-23T05:38:25.145Z,1023.08
2017-12-23T05:39:25.625Z,1023.09
2017-12-23T05:40:25.975Z,1023.20
2017-12-23T05:41:26.406Z,1023.16
2017-12-23T05:42:26.822Z,1023.17
2017-12-23T05:43:27.240Z,1023.14
2017-12-23T05:44:27.663Z,1023.12
2017-12-23T05:45:28.087Z,1023.14
2017-12-23T05:46:28.512Z,1023.05
2017-12-23T05:47:28.969Z,1023.11
2017-12-23T05:48:29.350Z,1023.19
2017-12-23T05:49:29.771Z,1023.04
2017-12-23T05:50:30.197Z,1023.02
2017-12-23T05:51:30.615Z,1023.00
2017-12-23T05:52:31.038Z,1022.92
2017-12-23T05:53:31.458Z,1022.93
2017-12-23T05:54:31.876Z,1022.82
2017-12-23T05:55:32.296Z,1022.76
2017-12-23T05:56:32.722Z,1022.82
2017-12-23T05:57:33.139Z,1022.73
2017-12-23T05:58:33.572Z,1022.61
2017-12-23T05:59:33.990Z,1022.77
2017-12-23T06:00:34.409Z,1022.73
2017-12-23T06:01:34.829Z,1022.70
2017-12-23T06:02:35.255Z,1022.65
2017-12-23T06:03:35.671Z,1022.64
2017-12-23T06:04:36.096Z,1022.63
2017-12-23T06:05:36.512Z,1022.61
2017-12-23T06:06:36.934Z,1022.69
2017-12-23T06:07:37.350Z,1022.71
2017-12-23T06:08:37.780Z,1022.68
2017-12-23T06:09:38.196Z,1022.65
2017-12-23T06:10:38.623Z,1022.61
2017-12-23T06:11:39.042Z,1022.63
2017-12-23T06:12:39.459Z,1022.60
2017-12-23T06:13:39.890Z,1022.52
2017-12-23T06:14:40.307Z,1022.50
2017-12-23T06:15:40.722Z,1022.42
2017-12-23T06:16:41.144Z,1022.41
2017-12-23T06:17:41.568Z,1022.34
2017-12-23T06:18:41.994Z,1022.31
2017-12-23T06:19:42.409Z,1022.32
2017-12-23T06:20:42.828Z,1022.29
2017-12-23T06:21:43.250Z,1022.23
2017-12-23T06:22:43.674Z,1022.19
2017-12-23T06:23:44.090Z,1022.14
2017-12-23T06:24:44.514Z,1022.22
2017-12-23T06:25:44.939Z,1022.17
2017-12-23T06:26:45.360Z,1022.19
2017-12-23T06:27:45.780Z,1022.27
2017-12-23T06:28:46.204Z,1022.23
2017-12-23T06:29:46.622Z,1022.35
2017-12-23T06:30:47.044Z,1022.19
2017-12-23T06:31:47.466Z,1022.21
2017-12-23T06:32:47.892Z,1022.19
2017-12-23T06:33:48.306Z,1022.20
2017-12-23T06:34:48.736Z,1022.08
2017-12-23T06:35:49.150Z,1022.18
2017-12-23T06:36:49.573Z,1022.12
2017-12-23T06:37:49.992Z,1021.99
2017-12-23T06:38:50.421Z,1022.01
2017-12-23T06:39:50.838Z,1022.03
2017-12-23T06:40:51.335Z,1022.06
2017-12-23T06:41:51.692Z,1021.96
2017-12-23T06:42:52.103Z,1021.99
2017-12-23T06:43:52.522Z,1021.97
2017-12-23T06:44:52.945Z,1021.97
2017-12-23T06:45:53.367Z,1021.88
2017-12-23T06:46:53.784Z,1021.88
2017-12-23T06:47:54.205Z,1021.90
2017-12-23T06:48:54.630Z,1021.88
2017-12-23T06:49:55.057Z,1021.84
2017-12-23T06:50:55.473Z,1021.83
2017-12-23T06:51:55.895Z,1021.88
2017-12-23T06:52:56.323Z,1021.83
2017-12-23T06:53:56.777Z,1021.83
2017-12-23T06:54:57.167Z,1021.84
2017-12-23T06:55:57.620Z,1021.88
2017-12-23T06:56:58.002Z,1021.77
2017-12-23T06:57:58.421Z,1021.79
2017-12-23T06:58:58.846Z,1021.82
2017-12-23T06:59:59.264Z,1021.78
2017-12-23T07:00:59.691Z,1021.74
2017-12-23T07:02:00.119Z,1021.76
2017-12-23T07:03:00.532Z,1021.85
2017-12-23T07:04:00.969Z,1021.88
2017-12-23T07:05:01.372Z,1021.90
2017-12-23T07:06:01.799Z,1021.81
2017-12-23T07:07:02.219Z,1021.70
2017-12-23T07:08:02.638Z,1021.75
2017-12-23T07:09:03.066Z,1021.68
2017-12-23T07:10:03.482Z,1021.66
2017-12-23T07:11:03.909Z,1021.63
2017-12-23T07:12:04.325Z,1021.65
2017-12-23T07:13:04.747Z,1021.63
2017-12-23T07:14:05.166Z,1021.69
2017-12-23T07:15:05.594Z,1021.71
2017-12-23T07:16:06.010Z,1021.73
2017-12-23T07:17:06.442Z,1021.63
2017-12-23T07:18:06.855Z,1021.61
2017-12-23T07:19:07.276Z,1021.61
2017-12-23T07:20:07.697Z,1021.59
2017-12-23T07:21:08.118Z,1021.59
2017-12-23T07:22:08.578Z,1021.57
2017-12-23T07:23:08.965Z,1021.51
2017-12-23T07:24:09.383Z,1021.56
2017-12-23T07:25:09.817Z,1021.54
2017-12-23T07:26:10.234Z,1021.45
2017-12-23T07:27:10.661Z,1021.47
2017-12-23T07:28:11.075Z,1021.53
2017-12-23T07:29:11.498Z,1021.40
2017-12-23T07:30:11.920Z,1021.47
2017-12-23T07:31:12.337Z,1021.51
2017-12-23T07:32:12.809Z,1021.49
2017-12-23T07:33:13.216Z,1021.42
2017-12-23T07:34:13.602Z,1021.44
2017-12-23T07:35:14.031Z,1021.52
2017-12-23T07:36:14.446Z,1021.49
2017-12-23T07:37:14.899Z,1021.47
2017-12-23T07:38:15.290Z,1021.44
2017-12-23T07:39:15.711Z,1021.41
2017-12-23T07:40:16.132Z,1021.38
2017-12-23T07:41:16.558Z,1021.48
2017-12-23T07:42:16.991Z,1021.46
2017-12-23T07:43:17.407Z,1021.41
2017-12-23T07:44:17.823Z,1021.28
2017-12-23T07:45:18.241Z,1021.37
2017-12-23T07:46:18.663Z,1021.31
2017-12-23T07:47:19.085Z,1021.24
2017-12-23T07:48:19.507Z,1021.25
2017-12-23T07:49:19.931Z,1021.22
2017-12-23T07:50:20.355Z,1021.20
2017-12-23T07:51:20.842Z,1021.26
2017-12-23T07:52:21.192Z,1021.24
2017-12-23T07:53:21.616Z,1021.17
2017-12-23T07:54:22.039Z,1021.19
2017-12-23T07:55:22.465Z,1021.22
2017-12-23T07:56:22.882Z,1021.18
2017-12-23T07:57:23.307Z,1021.17
2017-12-23T07:58:23.729Z,1021.24
2017-12-23T07:59:24.150Z,1021.18
2017-12-23T08:00:24.569Z,1021.16
2017-12-23T08:01:24.994Z,1021.13
2017-12-23T08:02:25.418Z,1021.12
2017-12-23T08:03:25.844Z,1021.13
2017-12-23T08:04:26.271Z,1021.04
2017-12-23T08:05:26.683Z,1021.09
2017-12-23T08:06:27.101Z,1021.07
2017-12-23T08:07:27.528Z,1021.04
2017-12-23T08:08:27.949Z,1020.98
2017-12-23T08:09:28.370Z,1020.98
2017-12-23T08:10:28.793Z,1020.98
2017-12-23T08:11:29.213Z,1020.91
2017-12-23T08:12:29.635Z,1020.93
2017-12-23T08:13:30.064Z,1020.86
2017-12-23T08:14:30.481Z,1020.96
2017-12-23T08:15:30.908Z,1020.99
2017-12-23T08:16:31.325Z,1020.97
2017-12-23T08:17:31.752Z,1021.08
2017-12-23T08:18:32.170Z,1020.98
2017-12-23T08:19:32.604Z,1020.92
2017-12-23T08:20:33.013Z,1020.93
2017-12-23T08:21:33.436Z,1020.98
2017-12-23T08:22:33.870Z,1020.88
2017-12-23T08:23:34.282Z,1020.85
2017-12-23T08:24:34.708Z,1020.93
2017-12-23T08:25:35.126Z,1020.89
2017-12-23T08:26:35.551Z,1020.93
2017-12-23T08:27:35.972Z,1020.96
2017-12-23T08:28:36.450Z,1020.91
2017-12-23T08:29:44.238Z,1020.85
2017-12-23T08:31:31.476Z,1020.85
2017-12-23T08:32:31.880Z,1020.97
2017-12-23T08:34:26.416Z,1020.99
2017-12-23T08:35:26.848Z,1020.88
2017-12-23T08:37:21.394Z,1020.81
2017-12-23T08:38:21.799Z,1020.80
2017-12-23T08:41:56.794Z,1020.84
2017-12-23T08:42:57.197Z,1020.77
2017-12-23T08:44:51.728Z,1020.78
2017-12-23T08:45:52.158Z,1020.81
2017-12-23T08:47:46.704Z,1020.69
2017-12-23T08:48:47.112Z,1020.65
2017-12-23T08:50:41.715Z,1020.60
2017-12-23T08:51:42.073Z,1020.56
2017-12-23T08:53:52.369Z,1020.54
2017-12-23T08:54:52.746Z,1020.61
2017-12-23T08:56:47.293Z,1020.73
2017-12-23T08:57:47.707Z,1020.70
2017-12-23T08:59:42.256Z,1020.77
2017-12-23T09:00:42.670Z,1020.76
2017-12-23T09:02:37.214Z,1020.80
2017-12-23T09:03:37.638Z,1020.84
2017-12-23T09:05:33.055Z,1020.86
2017-12-23T09:06:33.467Z,1020.92
2017-12-23T09:07:33.890Z,1020.98
2017-12-23T09:08:34.311Z,1020.96
2017-12-23T09:09:34.738Z,1020.94
2017-12-23T09:10:35.164Z,1021.01
2017-12-23T09:11:35.581Z,1020.98
2017-12-23T09:12:36.004Z,1020.98
2017-12-23T09:13:36.450Z,1021.04
2017-12-23T09:14:36.850Z,1021.12
2017-12-23T09:15:37.272Z,1021.12
2017-12-23T09:16:37.694Z,1021.12
2017-12-23T09:17:38.121Z,1021.16
2017-12-23T09:18:38.544Z,1021.17
2017-12-23T09:19:38.965Z,1021.29
2017-12-23T09:20:39.396Z,1021.25
2017-12-23T09:21:39.816Z,1021.21
2017-12-23T09:22:40.238Z,1021.20
2017-12-23T09:23:40.649Z,1021.20
2017-12-23T09:24:41.087Z,1021.10
2017-12-23T09:25:41.502Z,1021.19
2017-12-23T09:26:41.989Z,1021.28
2017-12-23T09:27:42.355Z,1021.32
2017-12-23T09:28:42.773Z,1021.27
2017-12-23T09:29:43.234Z,1021.25
2017-12-23T09:30:43.623Z,1021.32
2017-12-23T09:31:44.042Z,1021.26
2017-12-23T09:32:44.463Z,1021.27
2017-12-23T09:33:44.891Z,1021.22
2017-12-23T09:34:45.314Z,1021.15
2017-12-23T09:35:45.732Z,1021.22
2017-12-23T09:36:46.156Z,1021.14
2017-12-23T09:37:46.606Z,1021.20
2017-12-23T09:38:47.012Z,1021.13
2017-12-23T09:39:47.426Z,1021.17
2017-12-23T09:40:47.851Z,1021.14
2017-12-23T09:41:48.278Z,1021.06
2017-12-23T09:42:48.703Z,1021.06
2017-12-23T09:43:49.120Z,1021.12
2017-12-23T09:44:49.556Z,1020.91
2017-12-23T09:45:49.969Z,1020.94
2017-12-23T09:46:50.392Z,1020.87
2017-12-23T09:47:50.822Z,1020.87
2017-12-23T09:48:51.236Z,1020.77
2017-12-23T09:49:51.670Z,1020.80
2017-12-23T09:50:52.143Z,1020.73
2017-12-23T09:51:52.508Z,1020.69
2017-12-23T09:52:52.928Z,1020.79
2017-12-23T09:53:53.352Z,1020.70
2017-12-23T09:54:53.777Z,1020.63
2017-12-23T09:55:54.201Z,1020.74
2017-12-23T09:56:54.624Z,1020.68
2017-12-23T09:57:55.046Z,1020.63
2017-12-23T09:58:55.469Z,1020.67
2017-12-23T09:59:55.897Z,1020.67
2017-12-23T10:00:56.329Z,1020.73
2017-12-23T10:01:56.752Z,1020.78
2017-12-23T10:02:57.164Z,1020.70
2017-12-23T10:03:57.590Z,1020.67
2017-12-23T10:04:58.012Z,1020.80
2017-12-23T10:05:58.432Z,1020.72
2017-12-23T10:06:58.856Z,1020.74
2017-12-23T10:07:59.279Z,1020.64
2017-12-23T10:08:59.706Z,1020.55
2017-12-23T10:10:00.128Z,1020.45
2017-12-23T10:11:00.549Z,1020.41
2017-12-23T10:12:00.973Z,1020.44
2017-12-23T10:13:01.396Z,1020.44
2017-12-23T10:14:01.826Z,1020.47
2017-12-23T10:15:02.245Z,1020.47
2017-12-23T10:16:02.670Z,1020.50
2017-12-23T10:17:03.095Z,1020.51
2017-12-23T10:18:03.547Z,1020.40
2017-12-23T10:19:03.944Z,1020.42
2017-12-23T10:20:04.360Z,1020.47
2017-12-23T10:21:04.782Z,1020.49
2017-12-23T10:22:05.207Z,1020.48
2017-12-23T10:23:05.628Z,1020.52
2017-12-23T10:24:06.054Z,1020.51
2017-12-23T10:25:06.480Z,1020.51
2017-12-23T10:26:06.897Z,1020.37
2017-12-23T10:27:07.321Z,1020.38
2017-12-23T10:28:07.746Z,1020.39
2017-12-23T10:29:08.172Z,1020.38
2017-12-23T10:30:08.592Z,1020.44
2017-12-23T10:31:09.059Z,1020.40
2017-12-23T10:32:09.440Z,1020.28
2017-12-23T10:33:09.865Z,1020.35
2017-12-23T10:34:10.285Z,1020.23
2017-12-23T10:35:10.708Z,1020.19
2017-12-23T10:36:11.132Z,1020.25
2017-12-23T10:37:11.566Z,1020.22
2017-12-23T10:38:12.006Z,1020.22
2017-12-23T10:39:12.405Z,1020.16
2017-12-23T10:40:12.830Z,1020.14
2017-12-23T10:41:13.253Z,1020.09
2017-12-23T10:42:13.674Z,1020.09
2017-12-23T10:43:14.097Z,1020.14
2017-12-23T10:44:14.522Z,1020.13
2017-12-23T10:45:14.949Z,1020.06
2017-12-23T10:46:15.366Z,1020.07
2017-12-23T10:47:15.796Z,1020.13
2017-12-23T10:48:16.271Z,1020.06
2017-12-23T10:49:16.643Z,1020.04
2017-12-23T10:50:17.062Z,1019.97
2017-12-23T10:51:17.499Z,1019.90
2017-12-23T10:52:17.914Z,1019.96
2017-12-23T10:53:18.337Z,1019.99
2017-12-23T10:54:18.760Z,1020.04
2017-12-23T10:55:19.183Z,1020.00
2017-12-23T10:56:19.617Z,1019.97
2017-12-23T10:57:20.032Z,1019.94
2017-12-23T10:58:20.455Z,1020.08
2017-12-23T10:59:20.882Z,1019.95
2017-12-23T11:00:21.308Z,1019.88
2017-12-23T11:01:21.814Z,1019.86
2017-12-23T11:02:22.153Z,1019.87
2017-12-23T11:03:22.580Z,1019.83
2017-12-23T11:04:23.012Z,1019.71
2017-12-23T11:05:23.425Z,1019.78
2017-12-23T11:06:23.851Z,1019.84
2017-12-23T11:07:24.274Z,1019.95
2017-12-23T11:08:24.705Z,1019.82
2017-12-23T11:09:25.225Z,1019.73
2017-12-23T11:10:25.546Z,1019.68
2017-12-23T11:11:26.076Z,1019.75
2017-12-23T11:12:26.397Z,1019.67
2017-12-23T11:13:26.985Z,1019.64
2017-12-23T11:14:27.265Z,1019.74
2017-12-23T11:15:27.688Z,1019.67
2017-12-23T11:16:28.094Z,1019.58
2017-12-23T11:17:28.522Z,1019.66
2017-12-23T11:18:29.055Z,1019.61
2017-12-23T11:19:29.363Z,1019.46
2017-12-23T11:20:29.793Z,1019.41
2017-12-23T11:21:30.221Z,1019.37
2017-12-23T11:22:30.642Z,1019.34
2017-12-23T11:23:31.080Z,1019.25
2017-12-23T11:24:31.487Z,1019.24
2017-12-23T11:25:31.915Z,1019.18
2017-12-23T11:26:32.333Z,1019.14
2017-12-23T11:27:32.776Z,1019.14
2017-12-23T11:28:33.182Z,1019.17
2017-12-23T11:29:33.606Z,1019.17
2017-12-23T11:30:34.033Z,1019.12
2017-12-23T11:31:34.997Z,1019.10
2017-12-23T11:32:34.884Z,1018.98
2017-12-23T11:33:35.315Z,1019.03
2017-12-23T11:34:35.730Z,1019.10
2017-12-23T11:35:36.163Z,1019.03
2017-12-23T11:36:36.580Z,1018.99
2017-12-23T11:37:37.004Z,1019.00
2017-12-23T11:38:37.449Z,1019.00
2017-12-23T11:39:37.855Z,1018.93
2017-12-23T11:40:38.277Z,1018.93
2017-12-23T11:41:38.709Z,1018.86
2017-12-23T11:42:39.125Z,1018.84
2017-12-23T11:43:39.559Z,1018.75
2017-12-23T11:44:39.977Z,1018.76
2017-12-23T11:45:40.406Z,1018.77
2017-12-23T11:46:40.831Z,1018.86
2017-12-23T11:47:41.260Z,1018.76
2017-12-23T11:48:41.676Z,1018.92
2017-12-23T11:49:42.099Z,1018.94
2017-12-23T11:50:42.528Z,1018.96
2017-12-23T11:51:42.945Z,1018.87
2017-12-23T11:52:43.416Z,1018.89
2017-12-23T11:53:43.799Z,1018.83
2017-12-23T11:54:44.234Z,1018.73
2017-12-23T11:55:44.647Z,1018.66
2017-12-23T11:56:45.095Z,1018.48
2017-12-23T11:57:45.496Z,1018.52
2017-12-23T11:58:45.920Z,1018.57
2017-12-23T11:59:46.342Z,1018.53
2017-12-23T12:00:46.773Z,1018.55
2017-12-23T12:01:47.196Z,1018.56
2017-12-23T12:02:47.629Z,1018.53
2017-12-23T12:03:48.041Z,1018.44
2017-12-23T12:04:48.469Z,1018.54
2017-12-23T12:05:48.891Z,1018.44
2017-12-23T12:06:49.317Z,1018.41
2017-12-23T12:07:49.737Z,1018.55
2017-12-23T12:08:50.164Z,1018.47
2017-12-23T12:09:50.589Z,1018.43
2017-12-23T12:10:51.010Z,1018.38
2017-12-23T12:11:51.443Z,1018.30
2017-12-23T12:12:51.864Z,1018.38
2017-12-23T12:13:52.293Z,1018.31
2017-12-23T12:14:52.755Z,1018.27
2017-12-23T12:15:53.195Z,1018.23
2017-12-23T12:16:53.595Z,1018.27
2017-12-23T12:17:54.017Z,1018.20
2017-12-23T12:18:54.455Z,1018.31
2017-12-23T12:19:54.863Z,1018.17
2017-12-23T12:20:55.286Z,1018.26
2017-12-23T12:21:55.723Z,1018.22
2017-12-23T12:22:56.130Z,1018.11